createdAt,value
2023-04-15T00:04:53.284Z,99793.20
2023-04-15T00:09:59.006Z,99794.60
2023-04-15T00:15:06.335Z,99790.40
2023-04-15T00:20:14.081Z,99797.60
2023-04-15T00:25:19.740Z,99790.40
2023-04-15T00:30:26.114Z,99783.80
2023-04-15T00:35:32.784Z,99780.80
2023-04-15T00:40:39.427Z,99784.20
2023-04-15T00:45:46.743Z,99773.20
2023-04-15T00:50:52.679Z,99782.00
2023-04-15T00:55:58.685Z,99786.00
2023-04-15T01:01:05.424Z,99788.00
2023-04-15T01:06:12.041Z,99787.80
2023-04-15T01:11:18.985Z,99792.40
2023-04-15T01:16:24.595Z,99770.80
2023-04-15T01:21:30.319Z,99783.20
2023-04-15T01:26:36.202Z,99786.60
2023-04-15T01:31:41.874Z,99779.60
2023-04-15T01:36:47.844Z,99783.60
2023-04-15T01:41:53.732Z,99777.40
2023-04-15T01:47:00.385Z,99773.20
2023-04-15T01:52:06.513Z,99773.20
2023-04-15T01:57:12.378Z,99772.80
2023-04-15T02:02:18.097Z,99767.40
2023-04-15T02:07:23.991Z,99766.80
2023-04-15T02:12:30.139Z,99773.80
2023-04-15T02:17:37.891Z,99778.00
2023-04-15T02:22:43.766Z,99774.40
2023-04-15T02:27:49.499Z,99774.60
2023-04-15T02:32:55.634Z,99772.40
2023-04-15T02:38:02.763Z,99772.60
2023-04-15T02:43:08.465Z,99772.80
2023-04-15T02:48:14.253Z,99778.20
2023-04-15T02:53:20.476Z,99780.20
2023-04-15T02:58:26.345Z,99774.20
2023-04-15T03:03:32.360Z,99776.40
2023-04-15T03:08:38.359Z,99779.60
2023-04-15T03:13:43.995Z,99778.80
2023-04-15T03:18:49.643Z,99783.60
2023-04-15T03:23:55.894Z,99783.40
2023-04-15T03:29:01.841Z,99787.20
2023-04-15T03:34:07.794Z,99788.80
2023-04-15T03:39:13.773Z,99788.60
2023-04-15T03:44:19.914Z,99779.80
2023-04-15T03:49:25.517Z,99780.40
2023-04-15T03:54:31.230Z,99782.00
2023-04-15T03:59:36.836Z,99782.00
2023-04-15T04:04:43.388Z,99775.20
2023-04-15T04:09:48.980Z,99781.80
2023-04-15T04:14:55.121Z,99776.20
2023-04-15T04:20:00.662Z,99784.40
2023-04-15T04:25:08.618Z,99769.60
2023-04-15T04:30:15.822Z,99779.80
2023-04-15T04:35:22.317Z,99787.80
2023-04-15T04:40:27.957Z,99788.20
2023-04-15T04:45:33.680Z,99792.00
2023-04-15T04:50:39.475Z,99788.20
2023-04-15T04:55:45.240Z,99797.80
2023-04-15T05:00:51.480Z,99788.40
2023-04-15T05:05:57.050Z,99799.00
2023-04-15T05:11:02.979Z,99795.60
2023-04-15T05:16:09.520Z,99800.20
2023-04-15T05:21:15.973Z,99806.80
2023-04-15T05:26:22.081Z,99808.80
2023-04-15T05:31:27.704Z,99809.80
2023-04-15T05:36:33.428Z,99803.00
2023-04-15T05:41:39.034Z,99812.40
2023-04-15T05:46:44.807Z,99812.40
2023-04-15T05:51:51.160Z,99815.60
2023-04-15T05:56:57.948Z,99825.80
2023-04-15T06:02:03.833Z,99833.00
2023-04-15T06:07:09.407Z,99827.80
2023-04-15T06:12:15.055Z,99817.20
2023-04-15T06:17:20.779Z,99827.40
2023-04-15T06:22:26.507Z,99828.00
2023-04-15T06:27:32.116Z,99825.40
2023-04-15T06:32:37.915Z,99834.60
2023-04-15T06:37:43.698Z,99835.80
2023-04-15T06:42:49.698Z,99838.60
2023-04-15T06:47:55.325Z,99836.20
2023-04-15T06:53:01.744Z,99839.00
2023-04-15T06:58:07.571Z,99840.60
2023-04-15T07:03:14.696Z,99837.40
2023-04-15T07:08:23.752Z,99843.60
2023-04-15T07:13:31.774Z,99843.20
2023-04-15T07:18:37.468Z,99854.20
2023-04-15T07:23:43.666Z,99848.00
2023-04-15T07:28:49.634Z,99855.00
2023-04-15T07:33:55.273Z,99865.60
2023-04-15T07:39:03.257Z,99866.60
2023-04-15T07:44:09.576Z,99871.40
2023-04-15T07:49:15.336Z,99868.60
2023-04-15T07:54:21.266Z,99872.20
2023-04-15T07:59:29.712Z,99876.20
2023-04-15T08:04:35.835Z,99866.80
2023-04-15T08:09:41.866Z,99871.60
2023-04-15T08:14:47.871Z,99878.40
2023-04-15T08:19:53.740Z,99883.80
2023-04-15T08:24:59.644Z,99881.80
2023-04-15T08:30:07.335Z,99885.60
2023-04-15T08:35:14.076Z,99880.40
2023-04-15T08:40:20.377Z,99881.60
2023-04-15T08:45:26.462Z,99876.80
2023-04-15T08:50:33.604Z,99890.40
2023-04-15T08:55:45.114Z,99888.60
2023-04-15T09:00:50.747Z,99895.00
2023-04-15T09:05:57.599Z,99887.60
2023-04-15T09:11:04.057Z,99877.00
2023-04-15T09:16:10.235Z,99885.20
2023-04-15T09:21:17.788Z,99889.40
2023-04-15T09:26:34.806Z,99889.60
2023-04-15T09:31:41.244Z,99886.80
2023-04-15T09:36:57.580Z,99888.60
2023-04-15T09:42:10.605Z,99889.60
2023-04-15T09:47:31.000Z,99900.20
2023-04-15T09:52:43.283Z,99899.80
2023-04-15T09:57:49.068Z,99903.00
2023-04-15T10:02:55.156Z,99909.40
2023-04-15T10:08:02.216Z,99917.60
2023-04-15T10:13:09.102Z,99908.80
2023-04-15T10:18:17.745Z,99921.20
2023-04-15T10:23:25.334Z,99916.80
2023-04-15T10:28:31.194Z,99921.60
2023-04-15T10:33:38.743Z,99915.40
2023-04-15T10:38:46.366Z,99913.00
2023-04-15T10:43:55.541Z,99911.60
2023-04-15T10:49:10.599Z,99915.40
2023-04-15T10:54:31.426Z,99906.20
2023-04-15T10:59:59.560Z,99925.00
2023-04-15T11:05:06.953Z,99924.20
2023-04-15T11:10:56.916Z,99926.00
2023-04-15T11:16:04.134Z,99928.20
2023-04-15T11:21:10.577Z,99929.60
2023-04-15T11:26:16.801Z,99925.20
2023-04-15T11:31:23.558Z,99929.40
2023-04-15T11:36:31.641Z,99933.00
2023-04-15T11:41:38.103Z,99930.20
2023-04-15T11:46:45.517Z,99943.20
2023-04-15T11:51:51.449Z,99946.80
2023-04-15T11:56:57.100Z,99948.00
2023-04-15T12:02:13.736Z,99946.80
2023-04-15T12:07:19.784Z,99940.00
2023-04-15T12:12:30.455Z,99955.20
2023-04-15T12:17:51.519Z,99949.40
2023-04-15T12:23:08.304Z,99952.00
2023-04-15T12:28:14.892Z,99954.60
2023-04-15T12:33:20.904Z,99961.00
2023-04-15T12:38:26.850Z,99965.80
2023-04-15T12:43:32.653Z,99968.60
2023-04-15T12:48:38.537Z,99970.00
2023-04-15T12:53:44.463Z,99973.20
2023-04-15T12:58:50.184Z,99978.40
2023-04-15T13:03:56.098Z,99974.40
2023-04-15T13:09:04.529Z,99973.80
2023-04-15T13:14:12.674Z,99973.60
2023-04-15T13:19:18.565Z,99974.60
2023-04-15T13:24:24.255Z,99977.80
2023-04-15T13:29:30.089Z,99980.60
2023-04-15T13:34:35.944Z,99984.20
2023-04-15T13:39:41.743Z,99984.20
2023-04-15T13:44:47.696Z,99983.40
2023-04-15T13:49:56.016Z,99981.40
2023-04-15T13:55:19.139Z,99983.40
2023-04-15T14:00:26.309Z,100000.80
2023-04-15T14:05:32.281Z,100006.00
2023-04-15T14:10:38.248Z,100005.40
2023-04-15T14:15:43.915Z,100002.20
2023-04-15T14:20:49.633Z,100012.20
2023-04-15T14:25:55.844Z,100012.20
2023-04-15T14:31:01.606Z,100014.60
2023-04-15T14:36:09.471Z,100009.60
2023-04-15T14:41:15.679Z,100020.00
2023-04-15T14:46:21.464Z,100035.80
2023-04-15T14:51:27.032Z,100036.00
2023-04-15T14:56:32.746Z,100036.80
2023-04-15T15:01:38.422Z,100049.60
2023-04-15T15:06:44.484Z,100044.40
2023-04-15T15:11:50.859Z,100046.00
2023-04-15T15:16:56.721Z,100052.00
2023-04-15T15:22:03.153Z,100053.00
2023-04-15T15:27:08.978Z,100062.20
2023-04-15T15:32:14.872Z,100061.00
2023-04-15T15:37:20.772Z,100068.80
2023-04-15T15:42:26.669Z,100067.60
2023-04-15T15:47:32.905Z,100078.60
2023-04-15T15:52:39.103Z,100075.20
2023-04-15T15:57:44.884Z,100083.00
2023-04-15T16:03:06.137Z,100083.60
2023-04-15T16:08:12.848Z,100086.20
2023-04-15T16:13:18.688Z,100092.80
2023-04-15T16:18:24.459Z,100096.60
2023-04-15T16:23:31.253Z,100102.60
2023-04-15T16:28:37.054Z,100109.80
2023-04-15T16:33:42.865Z,100113.60
2023-04-15T16:38:48.786Z,100122.40
2023-04-15T16:43:55.290Z,100130.60
2023-04-15T16:49:01.459Z,100137.60
2023-04-15T16:54:07.469Z,100143.80
2023-04-15T16:59:13.480Z,100142.80
2023-04-15T17:04:19.340Z,100146.40
2023-04-15T17:09:25.183Z,100159.80
2023-04-15T17:14:31.664Z,100163.40
2023-04-15T17:19:37.324Z,100167.20
2023-04-15T17:24:43.314Z,100176.20
2023-04-15T17:29:49.165Z,100176.60
2023-04-15T17:34:55.044Z,100183.20
2023-04-15T17:40:00.758Z,100184.20
2023-04-15T17:45:09.075Z,100189.00
2023-04-15T17:50:14.798Z,100208.40
2023-04-15T17:55:21.763Z,100211.00
2023-04-15T18:00:27.858Z,100214.20
2023-04-15T18:05:33.611Z,100212.80
2023-04-15T18:10:39.775Z,100225.60
2023-04-15T18:15:47.402Z,100231.40
2023-04-15T18:20:53.525Z,100240.20
2023-04-15T18:25:59.959Z,100237.00
2023-04-15T18:31:06.474Z,100251.00
2023-04-15T18:36:12.571Z,100249.20
2023-04-15T18:41:18.412Z,100253.80
2023-04-15T18:46:24.106Z,100249.20
2023-04-15T18:51:29.767Z,100258.20
2023-04-15T18:56:35.635Z,100262.40
2023-04-15T19:01:41.565Z,100270.60
2023-04-15T19:06:48.121Z,100270.80
2023-04-15T19:11:53.936Z,100275.00
2023-04-15T19:16:59.860Z,100270.60
2023-04-15T19:22:06.268Z,100274.80
2023-04-15T19:27:11.977Z,100273.00
2023-04-15T19:32:17.844Z,100272.40
2023-04-15T19:37:23.631Z,100276.00
2023-04-15T19:42:29.226Z,100277.20
2023-04-15T19:47:36.769Z,100274.20
2023-04-15T19:52:42.530Z,100276.40
2023-04-15T19:57:48.258Z,100267.60
2023-04-15T20:02:55.730Z,100268.60
2023-04-15T20:08:03.125Z,100272.20
2023-04-15T20:13:08.852Z,100266.40
2023-04-15T20:18:14.593Z,100277.40
2023-04-15T20:23:20.649Z,100268.20
2023-04-15T20:28:27.355Z,100266.80
2023-04-15T20:33:33.322Z,100268.60
2023-04-15T20:38:39.488Z,100269.60
2023-04-15T20:43:45.561Z,100268.00
2023-04-15T20:48:51.492Z,100266.60
2023-04-15T20:53:57.227Z,100260.60
2023-04-15T20:59:03.353Z,100270.20
2023-04-15T21:04:09.261Z,100270.60
2023-04-15T21:09:15.240Z,100270.40
2023-04-15T21:14:21.088Z,100277.40
2023-04-15T21:19:26.969Z,100276.80
2023-04-15T21:24:32.633Z,100278.20
2023-04-15T21:29:39.946Z,100282.00
2023-04-15T21:34:46.109Z,100279.20
2023-04-15T21:39:51.859Z,100293.80
2023-04-15T21:44:57.665Z,100291.00
2023-04-15T21:50:03.475Z,100295.80
2023-04-15T21:55:11.507Z,100299.60
2023-04-15T22:00:18.238Z,100301.60
2023-04-15T22:05:24.245Z,100311.00
2023-04-15T22:10:30.187Z,100306.80
2023-04-15T22:15:36.238Z,100319.60
2023-04-15T22:20:41.902Z,100325.80
2023-04-15T22:25:47.659Z,100335.00
2023-04-15T22:30:54.213Z,100332.40
2023-04-15T22:36:00.021Z,100330.80
2023-04-15T22:41:05.821Z,100342.20
2023-04-15T22:46:11.470Z,100340.40
2023-04-15T22:51:24.143Z,100340.00
2023-04-15T22:56:29.804Z,100342.00
2023-04-15T23:01:37.729Z,100336.60
2023-04-15T23:06:43.614Z,100341.40
2023-04-15T23:11:49.565Z,100341.80
2023-04-15T23:16:55.508Z,100344.00
2023-04-15T23:22:01.194Z,100342.40
2023-04-15T23:27:06.972Z,100347.40
2023-04-15T23:32:12.621Z,100348.40
2023-04-15T23:37:19.862Z,100352.20
2023-04-15T23:42:25.662Z,100336.40
2023-04-15T23:47:31.494Z,100342.00
2023-04-15T23:52:37.712Z,100337.40
2023-04-15T23:57:43.508Z,100343.00
